sensor_id;sensor_type;location;lat;lon;timestamp;pressure;altitude;pressure_sealevel;temperature;humidity
5703;BME280;2876;51.738;10.050;2023-06-26T00:05:53;99243.28;;;20.50;84.99
5703;BME280;2876;51.738;10.050;2023-06-26T00:11:55;99236.50;;;20.58;82.98
5703;BME280;2876;51.738;10.050;2023-06-26T00:17:58;99231.69;;;20.91;82.51
5703;BME280;2876;51.738;10.050;2023-06-26T00:24:00;99238.66;;;20.51;84.59
5703;BME280;2876;51.738;10.050;2023-06-26T00:30:03;99238.97;;;20.60;84.15
5703;BME280;2876;51.738;10.050;2023-06-26T00:36:05;99238.13;;;20.54;84.74
5703;BME280;2876;51.738;10.050;2023-06-26T00:42:07;99230.13;;;20.42;85.47
5703;BME280;2876;51.738;10.050;2023-06-26T00:48:11;99222.22;;;20.36;85.10
5703;BME280;2876;51.738;10.050;2023-06-26T00:54:14;99218.38;;;20.26;85.74
5703;BME280;2876;51.738;10.050;2023-06-26T01:00:22;99203.00;;;20.05;86.18
5703;BME280;2876;51.738;10.050;2023-06-26T01:06:24;99205.09;;;19.88;85.94
5703;BME280;2876;51.738;10.050;2023-06-26T01:12:27;99206.19;;;19.92;86.23
5703;BME280;2876;51.738;10.050;2023-06-26T01:18:31;99201.50;;;19.77;86.67
5703;BME280;2876;51.738;10.050;2023-06-26T01:24:35;99198.78;;;19.77;87.09
5703;BME280;2876;51.738;10.050;2023-06-26T01:30:42;99192.84;;;19.85;86.29
5703;BME280;2876;51.738;10.050;2023-06-26T01:36:45;99178.09;;;19.76;85.26
5703;BME280;2876;51.738;10.050;2023-06-26T01:42:47;99175.25;;;19.61;87.22
5703;BME280;2876;51.738;10.050;2023-06-26T01:48:59;99171.63;;;19.50;87.54
5703;BME280;2876;51.738;10.050;2023-06-26T01:55:31;99167.69;;;19.31;88.72
5703;BME280;2876;51.738;10.050;2023-06-26T02:01:35;99158.38;;;19.21;89.43
5703;BME280;2876;51.738;10.050;2023-06-26T02:07:37;99162.41;;;19.19;89.62
5703;BME280;2876;51.738;10.050;2023-06-26T02:13:39;99158.53;;;19.10;89.81
5703;BME280;2876;51.738;10.050;2023-06-26T02:19:41;99150.50;;;18.93;90.71
5703;BME280;2876;51.738;10.050;2023-06-26T02:25:49;99149.34;;;18.84;91.42
5703;BME280;2876;51.738;10.050;2023-06-26T02:31:50;99147.03;;;18.70;92.06
5703;BME280;2876;51.738;10.050;2023-06-26T02:37:52;99136.53;;;18.79;91.62
5703;BME280;2876;51.738;10.050;2023-06-26T02:43:54;99141.53;;;18.65;92.31
5703;BME280;2876;51.738;10.050;2023-06-26T02:49:56;99146.66;;;18.62;92.77
5703;BME280;2876;51.738;10.050;2023-06-26T02:55:58;99139.97;;;18.20;94.88
5703;BME280;2876;51.738;10.050;2023-06-26T03:02:00;99133.06;;;18.35;94.41
5703;BME280;2876;51.738;10.050;2023-06-26T03:08:03;99127.34;;;18.31;94.34
5703;BME280;2876;51.738;10.050;2023-06-26T03:14:05;99123.09;;;18.40;93.73
5703;BME280;2876;51.738;10.050;2023-06-26T03:20:07;99120.00;;;18.32;94.32
5703;BME280;2876;51.738;10.050;2023-06-26T03:26:10;99123.63;;;18.42;93.95
5703;BME280;2876;51.738;10.050;2023-06-26T03:32:12;99129.69;;;18.49;93.54
5703;BME280;2876;51.738;10.050;2023-06-26T03:38:14;99116.88;;;18.45;93.72
5703;BME280;2876;51.738;10.050;2023-06-26T03:44:16;99116.66;;;18.51;94.14
5703;BME280;2876;51.738;10.050;2023-06-26T03:50:19;99108.19;;;18.48;94.72
5703;BME280;2876;51.738;10.050;2023-06-26T03:56:21;99108.31;;;18.58;94.95
5703;BME280;2876;51.738;10.050;2023-06-26T04:02:23;99109.19;;;18.91;93.54
5703;BME280;2876;51.738;10.050;2023-06-26T04:08:25;99107.16;;;19.08;92.90
5703;BME280;2876;51.738;10.050;2023-06-26T04:14:28;99104.28;;;19.30;91.01
5703;BME280;2876;51.738;10.050;2023-06-26T04:20:30;99108.38;;;19.27;91.05
5703;BME280;2876;51.738;10.050;2023-06-26T04:26:32;99115.28;;;19.45;90.07
5703;BME280;2876;51.738;10.050;2023-06-26T04:32:34;99110.97;;;19.49;90.36
5703;BME280;2876;51.738;10.050;2023-06-26T04:38:36;99115.28;;;19.93;88.30
5703;BME280;2876;51.738;10.050;2023-06-26T04:44:38;99111.09;;;19.75;87.85
5703;BME280;2876;51.738;10.050;2023-06-26T04:50:42;99106.44;;;19.65;88.43
5703;BME280;2876;51.738;10.050;2023-06-26T04:56:44;99104.13;;;19.94;86.30
5703;BME280;2876;51.738;10.050;2023-06-26T05:02:48;99096.44;;;19.76;86.98
5703;BME280;2876;51.738;10.050;2023-06-26T05:08:51;99096.75;;;19.90;86.34
5703;BME280;2876;51.738;10.050;2023-06-26T05:14:52;99090.84;;;20.18;85.08
5703;BME280;2876;51.738;10.050;2023-06-26T05:20:55;99084.91;;;20.47;84.05
5703;BME280;2876;51.738;10.050;2023-06-26T05:26:57;99087.44;;;20.64;84.43
5703;BME280;2876;51.738;10.050;2023-06-26T05:33:01;99081.69;;;21.11;83.22
5703;BME280;2876;51.738;10.050;2023-06-26T05:39:03;99069.66;;;21.43;83.04
5703;BME280;2876;51.738;10.050;2023-06-26T05:45:06;99076.25;;;22.01;77.58
5703;BME280;2876;51.738;10.050;2023-06-26T05:51:08;99068.34;;;22.00;78.12
5703;BME280;2876;51.738;10.050;2023-06-26T05:57:13;99062.59;;;22.51;76.67
5703;BME280;2876;51.738;10.050;2023-06-26T06:03:15;99062.88;;;22.84;76.48
5703;BME280;2876;51.738;10.050;2023-06-26T06:09:18;99061.06;;;23.08;74.43
5703;BME280;2876;51.738;10.050;2023-06-26T06:15:20;99066.56;;;23.56;72.87
5703;BME280;2876;51.738;10.050;2023-06-26T06:21:22;99061.78;;;23.91;73.04
5703;BME280;2876;51.738;10.050;2023-06-26T06:27:24;99059.72;;;24.01;72.85
5703;BME280;2876;51.738;10.050;2023-06-26T06:33:26;99057.59;;;24.36;73.30
5703;BME280;2876;51.738;10.050;2023-06-26T06:39:29;99047.38;;;25.26;70.99
5703;BME280;2876;51.738;10.050;2023-06-26T06:45:31;99052.66;;;25.91;67.42
5703;BME280;2876;51.738;10.050;2023-06-26T06:51:32;99051.03;;;26.40;66.87
5703;BME280;2876;51.738;10.050;2023-06-26T06:57:39;99041.34;;;25.93;66.07
5703;BME280;2876;51.738;10.050;2023-06-26T07:03:41;99038.34;;;26.30;63.93
5703;BME280;2876;51.738;10.050;2023-06-26T07:09:44;99048.00;;;26.87;64.62
5703;BME280;2876;51.738;10.050;2023-06-26T07:15:46;99050.00;;;26.95;63.15
5703;BME280;2876;51.738;10.050;2023-06-26T07:21:49;99052.56;;;26.91;64.00
5703;BME280;2876;51.738;10.050;2023-06-26T07:27:51;99047.88;;;26.92;65.62
5703;BME280;2876;51.738;10.050;2023-06-26T07:33:53;99038.47;;;26.48;67.47
5703;BME280;2876;51.738;10.050;2023-06-26T07:39:55;99036.66;;;27.11;66.80
5703;BME280;2876;51.738;10.050;2023-06-26T07:45:57;99043.19;;;28.03;63.09
5703;BME280;2876;51.738;10.050;2023-06-26T07:52:00;99051.03;;;28.36;63.70
5703;BME280;2876;51.738;10.050;2023-06-26T07:58:02;99053.78;;;28.44;60.06
5703;BME280;2876;51.738;10.050;2023-06-26T08:04:04;99045.28;;;28.84;59.00
5703;BME280;2876;51.738;10.050;2023-06-26T08:10:07;99044.19;;;29.41;58.39
5703;BME280;2876;51.738;10.050;2023-06-26T08:16:09;99042.72;;;29.81;52.64
5703;BME280;2876;51.738;10.050;2023-06-26T08:22:11;99040.88;;;29.09;54.60
5703;BME280;2876;51.738;10.050;2023-06-26T08:28:12;99039.13;;;29.43;52.43
5703;BME280;2876;51.738;10.050;2023-06-26T08:34:14;99041.34;;;29.11;54.45
5703;BME280;2876;51.738;10.050;2023-06-26T08:40:17;99035.88;;;29.79;51.62
5703;BME280;2876;51.738;10.050;2023-06-26T08:46:23;99033.59;;;29.81;49.65
5703;BME280;2876;51.738;10.050;2023-06-26T08:52:43;99031.38;;;30.25;50.34
5703;BME280;2876;51.738;10.050;2023-06-26T08:58:45;99028.84;;;30.74;47.72
5703;BME280;2876;51.738;10.050;2023-06-26T09:04:48;99026.41;;;30.51;47.61
5703;BME280;2876;51.738;10.050;2023-06-26T09:10:52;99008.19;;;30.71;48.06
5703;BME280;2876;51.738;10.050;2023-06-26T09:16:54;99000.72;;;31.54;50.52
5703;BME280;2876;51.738;10.050;2023-06-26T09:22:56;98995.09;;;32.55;44.22
5703;BME280;2876;51.738;10.050;2023-06-26T09:28:58;99009.75;;;32.28;48.50
5703;BME280;2876;51.738;10.050;2023-06-26T09:35:02;99024.09;;;32.30;44.63
5703;BME280;2876;51.738;10.050;2023-06-26T09:41:04;99029.94;;;31.88;43.19
5703;BME280;2876;51.738;10.050;2023-06-26T09:47:07;99023.13;;;31.61;44.47
5703;BME280;2876;51.738;10.050;2023-06-26T09:53:10;99009.97;;;31.82;47.35
5703;BME280;2876;51.738;10.050;2023-06-26T09:59:12;99002.13;;;31.85;45.07
5703;BME280;2876;51.738;10.050;2023-06-26T10:05:15;99020.88;;;30.51;47.71
5703;BME280;2876;51.738;10.050;2023-06-26T10:11:21;99011.63;;;31.14;47.51
5703;BME280;2876;51.738;10.050;2023-06-26T10:17:32;99018.53;;;30.62;49.74
5703;BME280;2876;51.738;10.050;2023-06-26T10:23:36;99012.63;;;30.01;51.57
5703;BME280;2876;51.738;10.050;2023-06-26T10:29:40;99028.88;;;28.96;55.49
5703;BME280;2876;51.738;10.050;2023-06-26T10:35:43;99055.66;;;28.00;57.63
5703;BME280;2876;51.738;10.050;2023-06-26T10:41:46;99048.91;;;27.67;56.66
5703;BME280;2876;51.738;10.050;2023-06-26T10:48:05;99037.78;;;27.98;56.36
5703;BME280;2876;51.738;10.050;2023-06-26T10:54:18;99054.25;;;28.81;54.27
5703;BME280;2876;51.738;10.050;2023-06-26T11:00:20;99063.69;;;28.63;55.74
5703;BME280;2876;51.738;10.050;2023-06-26T11:06:22;99074.59;;;27.45;58.23
5703;BME280;2876;51.738;10.050;2023-06-26T11:12:41;99090.09;;;26.65;58.72
5703;BME280;2876;51.738;10.050;2023-06-26T11:18:45;99107.34;;;25.93;60.29
5703;BME280;2876;51.738;10.050;2023-06-26T11:24:49;99116.78;;;25.73;63.81
5703;BME280;2876;51.738;10.050;2023-06-26T11:30:54;99117.47;;;25.65;66.24
5703;BME280;2876;51.738;10.050;2023-06-26T11:36:57;99134.81;;;25.79;66.54
5703;BME280;2876;51.738;10.050;2023-06-26T11:43:01;99147.28;;;25.44;67.99
5703;BME280;2876;51.738;10.050;2023-06-26T11:49:07;99168.56;;;25.00;69.52
5703;BME280;2876;51.738;10.050;2023-06-26T11:55:09;99169.69;;;25.18;69.15
5703;BME280;2876;51.738;10.050;2023-06-26T12:01:16;99168.88;;;24.99;70.32
5703;BME280;2876;51.738;10.050;2023-06-26T12:07:19;99172.44;;;24.80;69.25
5703;BME280;2876;51.738;10.050;2023-06-26T12:13:21;99175.75;;;24.96;68.51
5703;BME280;2876;51.738;10.050;2023-06-26T12:19:26;99180.53;;;24.91;68.61
5703;BME280;2876;51.738;10.050;2023-06-26T12:25:28;99181.34;;;25.10;68.00
5703;BME280;2876;51.738;10.050;2023-06-26T12:31:32;99180.63;;;25.37;68.00
5703;BME280;2876;51.738;10.050;2023-06-26T12:37:38;99169.44;;;25.80;66.80
5703;BME280;2876;51.738;10.050;2023-06-26T12:43:42;99155.13;;;26.61;62.60
5703;BME280;2876;51.738;10.050;2023-06-26T12:49:49;99164.91;;;26.67;60.29
5703;BME280;2876;51.738;10.050;2023-06-26T12:55:51;99170.34;;;26.94;59.39
5703;BME280;2876;51.738;10.050;2023-06-26T13:01:53;99186.53;;;26.96;61.14
5703;BME280;2876;51.738;10.050;2023-06-26T13:07:55;99176.81;;;26.76;57.60
5703;BME280;2876;51.738;10.050;2023-06-26T13:13:58;99152.84;;;26.76;58.75
5703;BME280;2876;51.738;10.050;2023-06-26T13:20:11;99154.75;;;26.90;61.31
5703;BME280;2876;51.738;10.050;2023-06-26T13:26:13;99148.63;;;26.43;59.76
5703;BME280;2876;51.738;10.050;2023-06-26T13:32:35;99154.75;;;26.53;59.34
5703;BME280;2876;51.738;10.050;2023-06-26T13:38:37;99156.41;;;27.13;58.27
5703;BME280;2876;51.738;10.050;2023-06-26T13:44:39;99153.38;;;27.01;58.29
5703;BME280;2876;51.738;10.050;2023-06-26T13:50:58;99150.25;;;26.58;59.67
5703;BME280;2876;51.738;10.050;2023-06-26T13:57:01;99156.59;;;26.30;60.55
5703;BME280;2876;51.738;10.050;2023-06-26T14:03:04;99172.38;;;25.97;61.77
5703;BME280;2876;51.738;10.050;2023-06-26T14:09:08;99168.13;;;25.91;60.18
5703;BME280;2876;51.738;10.050;2023-06-26T14:15:10;99177.59;;;26.26;59.45
5703;BME280;2876;51.738;10.050;2023-06-26T14:21:12;99182.06;;;26.50;58.56
5703;BME280;2876;51.738;10.050;2023-06-26T14:27:14;99181.56;;;26.62;55.44
5703;BME280;2876;51.738;10.050;2023-06-26T14:33:16;99167.50;;;26.36;57.23
5703;BME280;2876;51.738;10.050;2023-06-26T14:39:18;99171.63;;;28.35;53.23
5703;BME280;2876;51.738;10.050;2023-06-26T14:45:21;99169.81;;;29.69;47.00
5703;BME280;2876;51.738;10.050;2023-06-26T14:51:23;99191.28;;;29.72;47.41
5703;BME280;2876;51.738;10.050;2023-06-26T14:57:26;99184.47;;;28.66;46.02
5703;BME280;2876;51.738;10.050;2023-06-26T15:03:28;99177.22;;;28.96;46.98
5703;BME280;2876;51.738;10.050;2023-06-26T15:09:30;99181.88;;;29.65;43.73
5703;BME280;2876;51.738;10.050;2023-06-26T15:15:33;99167.59;;;28.93;43.99
5703;BME280;2876;51.738;10.050;2023-06-26T15:21:35;99165.19;;;28.57;44.10
5703;BME280;2876;51.738;10.050;2023-06-26T15:27:37;99160.63;;;28.04;44.26
5703;BME280;2876;51.738;10.050;2023-06-26T15:33:39;99156.81;;;27.83;45.15
5703;BME280;2876;51.738;10.050;2023-06-26T15:39:42;99157.84;;;27.95;45.90
5703;BME280;2876;51.738;10.050;2023-06-26T15:45:44;99160.56;;;27.87;46.51
5703;BME280;2876;51.738;10.050;2023-06-26T15:51:46;99164.44;;;26.87;48.97
5703;BME280;2876;51.738;10.050;2023-06-26T15:57:49;99168.94;;;26.83;49.67
5703;BME280;2876;51.738;10.050;2023-06-26T16:03:51;99176.00;;;26.75;50.81
5703;BME280;2876;51.738;10.050;2023-06-26T16:09:53;99183.19;;;25.80;50.00
5703;BME280;2876;51.738;10.050;2023-06-26T16:15:55;99183.78;;;24.93;53.18
5703;BME280;2876;51.738;10.050;2023-06-26T16:21:57;99190.91;;;24.32;55.87
5703;BME280;2876;51.738;10.050;2023-06-26T16:27:59;99202.31;;;24.44;57.14
5703;BME280;2876;51.738;10.050;2023-06-26T16:34:01;99201.53;;;24.39;56.44
5703;BME280;2876;51.738;10.050;2023-06-26T16:40:04;99222.75;;;24.28;56.54
5703;BME280;2876;51.738;10.050;2023-06-26T16:46:07;99240.75;;;24.39;55.93
5703;BME280;2876;51.738;10.050;2023-06-26T16:52:09;99240.47;;;24.12;58.53
5703;BME280;2876;51.738;10.050;2023-06-26T16:58:11;99238.97;;;24.00;57.98
5703;BME280;2876;51.738;10.050;2023-06-26T17:04:13;99259.38;;;23.89;58.07
5703;BME280;2876;51.738;10.050;2023-06-26T17:10:16;99252.03;;;23.79;59.20
5703;BME280;2876;51.738;10.050;2023-06-26T17:16:17;99261.88;;;23.86;59.27
5703;BME280;2876;51.738;10.050;2023-06-26T17:22:19;99266.22;;;23.52;59.97
5703;BME280;2876;51.738;10.050;2023-06-26T17:28:21;99277.03;;;23.73;58.53
5703;BME280;2876;51.738;10.050;2023-06-26T17:34:23;99277.34;;;23.66;55.88
5703;BME280;2876;51.738;10.050;2023-06-26T17:40:25;99288.72;;;23.49;52.96
5703;BME280;2876;51.738;10.050;2023-06-26T17:46:27;99300.00;;;23.38;54.42
5703;BME280;2876;51.738;10.050;2023-06-26T17:52:29;99288.34;;;23.22;53.80
5703;BME280;2876;51.738;10.050;2023-06-26T17:58:31;99305.72;;;22.97;54.88
5703;BME280;2876;51.738;10.050;2023-06-26T18:04:35;99296.84;;;22.61;55.55
5703;BME280;2876;51.738;10.050;2023-06-26T18:10:37;99305.66;;;22.37;56.38
5703;BME280;2876;51.738;10.050;2023-06-26T18:16:40;99319.38;;;22.27;57.50
5703;BME280;2876;51.738;10.050;2023-06-26T18:22:42;99328.66;;;22.11;58.62
5703;BME280;2876;51.738;10.050;2023-06-26T18:28:45;99337.41;;;22.18;56.42
5703;BME280;2876;51.738;10.050;2023-06-26T18:34:48;99335.50;;;22.03;55.61
5703;BME280;2876;51.738;10.050;2023-06-26T18:40:50;99345.06;;;21.85;56.77
5703;BME280;2876;51.738;10.050;2023-06-26T18:46:53;99346.16;;;21.64;55.50
5703;BME280;2876;51.738;10.050;2023-06-26T18:52:57;99351.03;;;21.51;56.95
5703;BME280;2876;51.738;10.050;2023-06-26T18:58:59;99356.50;;;21.46;57.39
5703;BME280;2876;51.738;10.050;2023-06-26T19:05:01;99366.88;;;21.44;57.98
5703;BME280;2876;51.738;10.050;2023-06-26T19:11:06;99370.31;;;21.29;58.42
5703;BME280;2876;51.738;10.050;2023-06-26T19:17:08;99378.56;;;21.35;57.94
5703;BME280;2876;51.738;10.050;2023-06-26T19:23:10;99382.66;;;21.32;56.52
5703;BME280;2876;51.738;10.050;2023-06-26T19:29:12;99387.16;;;21.06;58.23
5703;BME280;2876;51.738;10.050;2023-06-26T19:35:14;99395.94;;;21.13;57.14
5703;BME280;2876;51.738;10.050;2023-06-26T19:41:16;99401.63;;;21.07;57.06
5703;BME280;2876;51.738;10.050;2023-06-26T19:47:18;99412.47;;;20.91;57.98
5703;BME280;2876;51.738;10.050;2023-06-26T19:53:20;99421.63;;;20.70;57.33
5703;BME280;2876;51.738;10.050;2023-06-26T19:59:22;99414.81;;;20.67;56.91
5703;BME280;2876;51.738;10.050;2023-06-26T20:05:24;99429.50;;;20.29;57.71
5703;BME280;2876;51.738;10.050;2023-06-26T20:11:26;99438.78;;;20.33;57.69
5703;BME280;2876;51.738;10.050;2023-06-26T20:17:28;99435.53;;;20.31;58.13
5703;BME280;2876;51.738;10.050;2023-06-26T20:23:30;99444.13;;;20.18;58.75
5703;BME280;2876;51.738;10.050;2023-06-26T20:29:32;99440.00;;;20.15;59.29
5703;BME280;2876;51.738;10.050;2023-06-26T20:35:36;99447.22;;;19.99;59.21
5703;BME280;2876;51.738;10.050;2023-06-26T20:41:39;99459.41;;;19.92;58.95
5703;BME280;2876;51.738;10.050;2023-06-26T20:47:44;99456.31;;;19.83;59.31
5703;BME280;2876;51.738;10.050;2023-06-26T20:53:47;99457.97;;;19.84;59.53
5703;BME280;2876;51.738;10.050;2023-06-26T20:59:49;99462.75;;;19.72;59.16
5703;BME280;2876;51.738;10.050;2023-06-26T21:05:51;99463.13;;;19.59;60.07
5703;BME280;2876;51.738;10.050;2023-06-26T21:11:55;99478.38;;;19.38;60.44
5703;BME280;2876;51.738;10.050;2023-06-26T21:17:57;99473.13;;;19.09;62.41
5703;BME280;2876;51.738;10.050;2023-06-26T21:23:59;99484.16;;;19.02;63.18
5703;BME280;2876;51.738;10.050;2023-06-26T21:30:01;99475.81;;;18.70;63.56
5703;BME280;2876;51.738;10.050;2023-06-26T21:36:04;99483.56;;;18.79;63.08
5703;BME280;2876;51.738;10.050;2023-06-26T21:42:09;99493.44;;;18.68;64.20
5703;BME280;2876;51.738;10.050;2023-06-26T21:48:12;99505.25;;;18.11;66.30
5703;BME280;2876;51.738;10.050;2023-06-26T21:54:14;99505.16;;;18.06;67.36
5703;BME280;2876;51.738;10.050;2023-06-26T22:00:16;99499.34;;;18.14;67.71
5703;BME280;2876;51.738;10.050;2023-06-26T22:06:20;99507.53;;;17.86;68.35
5703;BME280;2876;51.738;10.050;2023-06-26T22:12:22;99509.88;;;17.70;68.75
5703;BME280;2876;51.738;10.050;2023-06-26T22:18:24;99516.22;;;17.47;70.16
5703;BME280;2876;51.738;10.050;2023-06-26T22:24:26;99512.06;;;17.57;70.73
5703;BME280;2876;51.738;10.050;2023-06-26T22:30:29;99512.47;;;17.37;70.56
5703;BME280;2876;51.738;10.050;2023-06-26T22:36:31;99514.94;;;17.38;69.96
5703;BME280;2876;51.738;10.050;2023-06-26T22:42:34;99520.47;;;17.43;69.57
5703;BME280;2876;51.738;10.050;2023-06-26T22:48:37;99527.72;;;17.14;70.91
5703;BME280;2876;51.738;10.050;2023-06-26T22:54:39;99526.28;;;17.23;70.41
5703;BME280;2876;51.738;10.050;2023-06-26T23:00:41;99519.84;;;17.01;72.17
5703;BME280;2876;51.738;10.050;2023-06-26T23:06:43;99517.72;;;16.80;73.14
5703;BME280;2876;51.738;10.050;2023-06-26T23:12:46;99523.56;;;16.65;74.42
5703;BME280;2876;51.738;10.050;2023-06-26T23:18:48;99532.22;;;16.73;74.66
5703;BME280;2876;51.738;10.050;2023-06-26T23:24:50;99530.84;;;16.41;75.07
5703;BME280;2876;51.738;10.050;2023-06-26T23:30:51;99538.72;;;16.31;75.93
5703;BME280;2876;51.738;10.050;2023-06-26T23:36:54;99542.25;;;16.31;75.99
5703;BME280;2876;51.738;10.050;2023-06-26T23:42:56;99532.88;;;16.15;75.87
5703;BME280;2876;51.738;10.050;2023-06-26T23:49:04;99532.88;;;16.15;76.49
5703;BME280;2876;51.738;10.050;2023-06-26T23:55:10;99532.06;;;16.15;76.23
